sensor_id;sensor_type;location;lat;lon;timestamp;P1;durP1;ratioP1;P2;durP2;ratioP2
17796;SDS011;55596;53.554;9.916;2022-07-10T00:00:06;5.17;;;1.40;;
17796;SDS011;55596;53.554;9.916;2022-07-10T00:02:35;3.57;;;1.20;;
17796;SDS011;55596;53.554;9.916;2022-07-10T00:05:02;8.60;;;1.10;;
17796;SDS011;55596;53.554;9.916;2022-07-10T00:07:30;4.03;;;1.10;;
17796;SDS011;55596;53.554;9.916;2022-07-10T00:09:58;8.20;;;1.50;;
17796;SDS011;55596;53.554;9.916;2022-07-10T00:12:25;6.23;;;1.37;;
17796;SDS011;55596;53.554;9.916;2022-07-10T00:14:52;8.93;;;1.53;;
17796;SDS011;55596;53.554;9.916;2022-07-10T00:17:19;5.73;;;1.20;;
17796;SDS011;55596;53.554;9.916;2022-07-10T00:19:45;3.60;;;0.90;;
17796;SDS011;55596;53.554;9.916;2022-07-10T00:22:12;4.97;;;1.17;;
17796;SDS011;55596;53.554;9.916;2022-07-10T00:24:39;5.67;;;1.17;;
17796;SDS011;55596;53.554;9.916;2022-07-10T00:27:07;5.07;;;1.03;;
17796;SDS011;55596;53.554;9.916;2022-07-10T00:29:34;9.33;;;1.30;;
17796;SDS011;55596;53.554;9.916;2022-07-10T00:32:01;2.67;;;0.90;;
17796;SDS011;55596;53.554;9.916;2022-07-10T00:34:28;8.13;;;1.30;;
17796;SDS011;55596;53.554;9.916;2022-07-10T00:36:55;5.67;;;0.97;;
17796;SDS011;55596;53.554;9.916;2022-07-10T00:39:22;5.70;;;1.20;;
17796;SDS011;55596;53.554;9.916;2022-07-10T00:41:49;4.97;;;1.27;;
17796;SDS011;55596;53.554;9.916;2022-07-10T00:44:17;7.77;;;1.60;;
17796;SDS011;55596;53.554;9.916;2022-07-10T00:46:44;5.33;;;1.13;;
17796;SDS011;55596;53.554;9.916;2022-07-10T00:49:11;9.10;;;1.43;;
17796;SDS011;55596;53.554;9.916;2022-07-10T00:51:38;7.03;;;1.30;;
17796;SDS011;55596;53.554;9.916;2022-07-10T00:54:05;7.87;;;1.40;;
17796;SDS011;55596;53.554;9.916;2022-07-10T00:56:32;3.30;;;1.20;;
17796;SDS011;55596;53.554;9.916;2022-07-10T00:58:59;4.37;;;1.13;;
17796;SDS011;55596;53.554;9.916;2022-07-10T01:01:27;5.33;;;1.30;;
17796;SDS011;55596;53.554;9.916;2022-07-10T01:03:54;5.17;;;1.23;;
17796;SDS011;55596;53.554;9.916;2022-07-10T01:06:21;6.57;;;1.10;;
17796;SDS011;55596;53.554;9.916;2022-07-10T01:08:48;7.30;;;1.37;;
17796;SDS011;55596;53.554;9.916;2022-07-10T01:11:15;5.10;;;1.23;;
17796;SDS011;55596;53.554;9.916;2022-07-10T01:13:42;7.10;;;1.37;;
17796;SDS011;55596;53.554;9.916;2022-07-10T01:16:09;6.40;;;1.33;;
17796;SDS011;55596;53.554;9.916;2022-07-10T01:18:38;3.73;;;1.10;;
17796;SDS011;55596;53.554;9.916;2022-07-10T01:21:06;7.53;;;1.13;;
17796;SDS011;55596;53.554;9.916;2022-07-10T01:23:49;5.77;;;1.17;;
17796;SDS011;55596;53.554;9.916;2022-07-10T01:26:17;5.47;;;1.10;;
17796;SDS011;55596;53.554;9.916;2022-07-10T01:28:45;6.20;;;1.43;;
17796;SDS011;55596;53.554;9.916;2022-07-10T01:31:14;6.63;;;1.40;;
17796;SDS011;55596;53.554;9.916;2022-07-10T01:33:41;10.90;;;1.40;;
17796;SDS011;55596;53.554;9.916;2022-07-10T01:36:11;8.03;;;1.57;;
17796;SDS011;55596;53.554;9.916;2022-07-10T01:38:38;4.57;;;1.30;;
17796;SDS011;55596;53.554;9.916;2022-07-10T01:41:05;5.77;;;1.73;;
17796;SDS011;55596;53.554;9.916;2022-07-10T01:43:33;6.17;;;1.37;;
17796;SDS011;55596;53.554;9.916;2022-07-10T01:46:00;8.17;;;1.43;;
17796;SDS011;55596;53.554;9.916;2022-07-10T01:48:27;7.20;;;1.30;;
17796;SDS011;55596;53.554;9.916;2022-07-10T01:50:53;6.77;;;1.07;;
17796;SDS011;55596;53.554;9.916;2022-07-10T01:53:21;4.87;;;1.47;;
17796;SDS011;55596;53.554;9.916;2022-07-10T01:55:48;7.13;;;1.37;;
17796;SDS011;55596;53.554;9.916;2022-07-10T01:58:15;6.60;;;1.27;;
17796;SDS011;55596;53.554;9.916;2022-07-10T02:00:42;7.17;;;1.47;;
17796;SDS011;55596;53.554;9.916;2022-07-10T02:03:10;8.20;;;1.00;;
17796;SDS011;55596;53.554;9.916;2022-07-10T02:05:54;7.23;;;1.27;;
17796;SDS011;55596;53.554;9.916;2022-07-10T02:08:22;5.47;;;1.20;;
17796;SDS011;55596;53.554;9.916;2022-07-10T02:10:49;6.17;;;1.70;;
17796;SDS011;55596;53.554;9.916;2022-07-10T02:13:16;8.23;;;1.93;;
17796;SDS011;55596;53.554;9.916;2022-07-10T02:15:45;8.60;;;1.53;;
17796;SDS011;55596;53.554;9.916;2022-07-10T02:18:12;7.67;;;2.73;;
17796;SDS011;55596;53.554;9.916;2022-07-10T02:20:39;8.47;;;1.57;;
17796;SDS011;55596;53.554;9.916;2022-07-10T02:23:06;7.67;;;1.47;;
17796;SDS011;55596;53.554;9.916;2022-07-10T02:25:34;5.90;;;1.47;;
17796;SDS011;55596;53.554;9.916;2022-07-10T02:28:01;7.90;;;2.00;;
17796;SDS011;55596;53.554;9.916;2022-07-10T02:30:28;6.60;;;1.43;;
17796;SDS011;55596;53.554;9.916;2022-07-10T02:32:55;8.13;;;2.13;;
17796;SDS011;55596;53.554;9.916;2022-07-10T02:35:22;10.63;;;1.80;;
17796;SDS011;55596;53.554;9.916;2022-07-10T02:37:49;9.83;;;1.50;;
17796;SDS011;55596;53.554;9.916;2022-07-10T02:40:16;13.60;;;2.90;;
17796;SDS011;55596;53.554;9.916;2022-07-10T02:42:44;8.83;;;2.07;;
17796;SDS011;55596;53.554;9.916;2022-07-10T02:45:11;12.00;;;2.23;;
17796;SDS011;55596;53.554;9.916;2022-07-10T02:47:38;9.47;;;1.83;;
17796;SDS011;55596;53.554;9.916;2022-07-10T02:50:05;7.90;;;1.73;;
17796;SDS011;55596;53.554;9.916;2022-07-10T02:52:32;8.97;;;1.70;;
17796;SDS011;55596;53.554;9.916;2022-07-10T02:54:59;11.00;;;1.87;;
17796;SDS011;55596;53.554;9.916;2022-07-10T02:57:26;10.10;;;1.50;;
17796;SDS011;55596;53.554;9.916;2022-07-10T02:59:54;8.20;;;1.93;;
17796;SDS011;55596;53.554;9.916;2022-07-10T03:02:21;8.13;;;1.77;;
17796;SDS011;55596;53.554;9.916;2022-07-10T03:04:48;11.03;;;1.73;;
17796;SDS011;55596;53.554;9.916;2022-07-10T03:07:14;12.03;;;2.07;;
17796;SDS011;55596;53.554;9.916;2022-07-10T03:09:41;7.20;;;1.63;;
17796;SDS011;55596;53.554;9.916;2022-07-10T03:12:08;7.40;;;1.70;;
17796;SDS011;55596;53.554;9.916;2022-07-10T03:14:35;9.53;;;1.97;;
17796;SDS011;55596;53.554;9.916;2022-07-10T03:17:03;11.73;;;1.93;;
17796;SDS011;55596;53.554;9.916;2022-07-10T03:19:30;9.63;;;1.73;;
17796;SDS011;55596;53.554;9.916;2022-07-10T03:21:58;6.10;;;1.80;;
17796;SDS011;55596;53.554;9.916;2022-07-10T03:24:25;7.43;;;1.97;;
17796;SDS011;55596;53.554;9.916;2022-07-10T03:26:51;11.87;;;2.40;;
17796;SDS011;55596;53.554;9.916;2022-07-10T03:29:18;10.03;;;2.50;;
17796;SDS011;55596;53.554;9.916;2022-07-10T03:31:45;6.90;;;1.70;;
17796;SDS011;55596;53.554;9.916;2022-07-10T03:34:13;12.87;;;2.33;;
17796;SDS011;55596;53.554;9.916;2022-07-10T03:36:40;15.10;;;1.90;;
17796;SDS011;55596;53.554;9.916;2022-07-10T03:39:07;13.90;;;2.20;;
17796;SDS011;55596;53.554;9.916;2022-07-10T03:41:34;9.00;;;1.87;;
17796;SDS011;55596;53.554;9.916;2022-07-10T03:44:01;10.77;;;2.57;;
17796;SDS011;55596;53.554;9.916;2022-07-10T03:46:28;13.07;;;2.20;;
17796;SDS011;55596;53.554;9.916;2022-07-10T03:48:55;10.20;;;2.00;;
17796;SDS011;55596;53.554;9.916;2022-07-10T03:51:23;13.60;;;2.60;;
17796;SDS011;55596;53.554;9.916;2022-07-10T03:53:50;9.37;;;1.90;;
17796;SDS011;55596;53.554;9.916;2022-07-10T03:56:17;10.00;;;2.10;;
17796;SDS011;55596;53.554;9.916;2022-07-10T03:58:57;11.13;;;2.40;;
17796;SDS011;55596;53.554;9.916;2022-07-10T04:01:24;10.77;;;2.07;;
17796;SDS011;55596;53.554;9.916;2022-07-10T04:03:51;10.43;;;2.20;;
17796;SDS011;55596;53.554;9.916;2022-07-10T04:06:18;14.57;;;2.40;;
17796;SDS011;55596;53.554;9.916;2022-07-10T04:08:46;12.23;;;2.60;;
17796;SDS011;55596;53.554;9.916;2022-07-10T04:11:13;13.47;;;2.27;;
17796;SDS011;55596;53.554;9.916;2022-07-10T04:13:40;11.37;;;2.20;;
17796;SDS011;55596;53.554;9.916;2022-07-10T04:16:07;14.47;;;2.53;;
17796;SDS011;55596;53.554;9.916;2022-07-10T04:18:37;9.07;;;2.37;;
17796;SDS011;55596;53.554;9.916;2022-07-10T04:21:04;15.33;;;2.50;;
17796;SDS011;55596;53.554;9.916;2022-07-10T04:23:31;12.67;;;2.47;;
17796;SDS011;55596;53.554;9.916;2022-07-10T04:26:00;10.93;;;2.50;;
17796;SDS011;55596;53.554;9.916;2022-07-10T04:28:26;16.23;;;2.57;;
17796;SDS011;55596;53.554;9.916;2022-07-10T04:30:53;12.57;;;2.70;;
17796;SDS011;55596;53.554;9.916;2022-07-10T04:33:20;8.67;;;2.40;;
17796;SDS011;55596;53.554;9.916;2022-07-10T04:35:47;17.60;;;3.00;;
17796;SDS011;55596;53.554;9.916;2022-07-10T04:38:13;13.80;;;2.70;;
17796;SDS011;55596;53.554;9.916;2022-07-10T04:40:40;15.10;;;3.23;;
17796;SDS011;55596;53.554;9.916;2022-07-10T04:43:08;14.07;;;2.73;;
17796;SDS011;55596;53.554;9.916;2022-07-10T04:45:36;13.10;;;2.50;;
17796;SDS011;55596;53.554;9.916;2022-07-10T04:48:03;13.70;;;2.70;;
17796;SDS011;55596;53.554;9.916;2022-07-10T04:50:31;11.87;;;2.70;;
17796;SDS011;55596;53.554;9.916;2022-07-10T04:52:57;12.30;;;3.00;;
17796;SDS011;55596;53.554;9.916;2022-07-10T04:55:24;13.20;;;2.97;;
17796;SDS011;55596;53.554;9.916;2022-07-10T04:57:52;14.90;;;2.97;;
17796;SDS011;55596;53.554;9.916;2022-07-10T05:00:20;13.60;;;3.03;;
17796;SDS011;55596;53.554;9.916;2022-07-10T05:02:47;16.33;;;2.90;;
17796;SDS011;55596;53.554;9.916;2022-07-10T05:05:14;14.77;;;2.90;;
17796;SDS011;55596;53.554;9.916;2022-07-10T05:07:41;16.53;;;3.27;;
17796;SDS011;55596;53.554;9.916;2022-07-10T05:10:08;14.20;;;2.93;;
17796;SDS011;55596;53.554;9.916;2022-07-10T05:12:35;12.83;;;3.17;;
17796;SDS011;55596;53.554;9.916;2022-07-10T05:15:02;18.50;;;3.70;;
17796;SDS011;55596;53.554;9.916;2022-07-10T05:17:31;16.37;;;3.23;;
17796;SDS011;55596;53.554;9.916;2022-07-10T05:19:57;16.37;;;2.80;;
17796;SDS011;55596;53.554;9.916;2022-07-10T05:22:24;14.87;;;2.73;;
17796;SDS011;55596;53.554;9.916;2022-07-10T05:24:51;16.10;;;3.30;;
17796;SDS011;55596;53.554;9.916;2022-07-10T05:27:18;17.93;;;2.87;;
17796;SDS011;55596;53.554;9.916;2022-07-10T05:29:45;15.87;;;3.13;;
17796;SDS011;55596;53.554;9.916;2022-07-10T05:32:12;10.83;;;3.27;;
17796;SDS011;55596;53.554;9.916;2022-07-10T05:34:41;17.47;;;2.93;;
17796;SDS011;55596;53.554;9.916;2022-07-10T05:37:08;13.33;;;2.80;;
17796;SDS011;55596;53.554;9.916;2022-07-10T05:39:34;17.67;;;3.13;;
17796;SDS011;55596;53.554;9.916;2022-07-10T05:42:01;13.33;;;3.03;;
17796;SDS011;55596;53.554;9.916;2022-07-10T05:44:28;16.47;;;2.87;;
17796;SDS011;55596;53.554;9.916;2022-07-10T05:46:55;15.00;;;3.60;;
17796;SDS011;55596;53.554;9.916;2022-07-10T05:49:22;15.23;;;3.10;;
17796;SDS011;55596;53.554;9.916;2022-07-10T05:51:50;15.37;;;2.80;;
17796;SDS011;55596;53.554;9.916;2022-07-10T05:54:17;17.23;;;3.50;;
17796;SDS011;55596;53.554;9.916;2022-07-10T05:56:43;19.53;;;3.23;;
17796;SDS011;55596;53.554;9.916;2022-07-10T05:59:11;14.97;;;2.80;;
17796;SDS011;55596;53.554;9.916;2022-07-10T06:01:37;13.47;;;2.90;;
17796;SDS011;55596;53.554;9.916;2022-07-10T06:04:04;18.73;;;2.90;;
17796;SDS011;55596;53.554;9.916;2022-07-10T06:06:31;14.13;;;3.10;;
17796;SDS011;55596;53.554;9.916;2022-07-10T06:08:59;12.77;;;3.03;;
17796;SDS011;55596;53.554;9.916;2022-07-10T06:11:26;16.70;;;3.27;;
17796;SDS011;55596;53.554;9.916;2022-07-10T06:13:53;17.27;;;3.43;;
17796;SDS011;55596;53.554;9.916;2022-07-10T06:16:19;15.23;;;3.10;;
17796;SDS011;55596;53.554;9.916;2022-07-10T06:18:46;11.33;;;2.80;;
17796;SDS011;55596;53.554;9.916;2022-07-10T06:21:13;13.90;;;2.60;;
17796;SDS011;55596;53.554;9.916;2022-07-10T06:23:40;13.27;;;2.70;;
17796;SDS011;55596;53.554;9.916;2022-07-10T06:26:08;15.90;;;2.93;;
17796;SDS011;55596;53.554;9.916;2022-07-10T06:28:34;19.13;;;3.27;;
17796;SDS011;55596;53.554;9.916;2022-07-10T06:31:01;13.53;;;2.70;;
17796;SDS011;55596;53.554;9.916;2022-07-10T06:33:28;13.03;;;2.60;;
17796;SDS011;55596;53.554;9.916;2022-07-10T06:35:57;13.90;;;2.97;;
17796;SDS011;55596;53.554;9.916;2022-07-10T06:38:24;12.67;;;2.70;;
17796;SDS011;55596;53.554;9.916;2022-07-10T06:40:51;13.70;;;3.40;;
17796;SDS011;55596;53.554;9.916;2022-07-10T06:43:20;13.23;;;3.07;;
17796;SDS011;55596;53.554;9.916;2022-07-10T06:45:47;12.50;;;2.80;;
17796;SDS011;55596;53.554;9.916;2022-07-10T06:48:14;15.23;;;2.90;;
17796;SDS011;55596;53.554;9.916;2022-07-10T06:50:41;14.97;;;3.00;;
17796;SDS011;55596;53.554;9.916;2022-07-10T06:53:09;11.87;;;2.90;;
17796;SDS011;55596;53.554;9.916;2022-07-10T06:55:36;14.47;;;2.63;;
17796;SDS011;55596;53.554;9.916;2022-07-10T06:58:04;13.00;;;3.03;;
17796;SDS011;55596;53.554;9.916;2022-07-10T07:00:32;15.57;;;2.70;;
17796;SDS011;55596;53.554;9.916;2022-07-10T07:02:59;15.30;;;2.80;;
17796;SDS011;55596;53.554;9.916;2022-07-10T07:05:25;13.53;;;2.77;;
17796;SDS011;55596;53.554;9.916;2022-07-10T07:07:52;16.23;;;3.00;;
17796;SDS011;55596;53.554;9.916;2022-07-10T07:10:19;17.87;;;2.67;;
17796;SDS011;55596;53.554;9.916;2022-07-10T07:12:46;11.33;;;2.47;;
17796;SDS011;55596;53.554;9.916;2022-07-10T07:15:12;13.07;;;2.63;;
17796;SDS011;55596;53.554;9.916;2022-07-10T07:17:42;11.43;;;2.47;;
17796;SDS011;55596;53.554;9.916;2022-07-10T07:20:22;15.90;;;3.17;;
17796;SDS011;55596;53.554;9.916;2022-07-10T07:23:07;15.63;;;3.10;;
17796;SDS011;55596;53.554;9.916;2022-07-10T07:25:37;13.87;;;2.70;;
17796;SDS011;55596;53.554;9.916;2022-07-10T07:28:06;11.80;;;2.17;;
17796;SDS011;55596;53.554;9.916;2022-07-10T07:30:34;13.77;;;2.73;;
17796;SDS011;55596;53.554;9.916;2022-07-10T07:33:02;11.80;;;2.63;;
17796;SDS011;55596;53.554;9.916;2022-07-10T07:35:29;14.73;;;2.10;;
17796;SDS011;55596;53.554;9.916;2022-07-10T07:37:56;15.17;;;2.83;;
17796;SDS011;55596;53.554;9.916;2022-07-10T07:40:23;14.60;;;2.37;;
17796;SDS011;55596;53.554;9.916;2022-07-10T07:42:49;9.60;;;2.30;;
17796;SDS011;55596;53.554;9.916;2022-07-10T07:45:17;11.20;;;2.10;;
17796;SDS011;55596;53.554;9.916;2022-07-10T07:47:44;16.03;;;3.07;;
17796;SDS011;55596;53.554;9.916;2022-07-10T07:50:14;9.87;;;2.07;;
17796;SDS011;55596;53.554;9.916;2022-07-10T07:52:43;14.07;;;2.83;;
17796;SDS011;55596;53.554;9.916;2022-07-10T07:55:11;11.70;;;2.63;;
17796;SDS011;55596;53.554;9.916;2022-07-10T07:57:39;14.90;;;2.97;;
17796;SDS011;55596;53.554;9.916;2022-07-10T08:00:07;13.17;;;2.63;;
17796;SDS011;55596;53.554;9.916;2022-07-10T08:02:35;13.87;;;2.40;;
17796;SDS011;55596;53.554;9.916;2022-07-10T08:05:02;15.17;;;2.83;;
17796;SDS011;55596;53.554;9.916;2022-07-10T08:07:35;11.90;;;2.50;;
17796;SDS011;55596;53.554;9.916;2022-07-10T08:10:04;14.30;;;2.20;;
17796;SDS011;55596;53.554;9.916;2022-07-10T08:12:33;16.53;;;2.87;;
17796;SDS011;55596;53.554;9.916;2022-07-10T08:15:00;12.10;;;2.37;;
17796;SDS011;55596;53.554;9.916;2022-07-10T08:17:27;13.40;;;2.47;;
17796;SDS011;55596;53.554;9.916;2022-07-10T08:19:54;11.87;;;2.37;;
17796;SDS011;55596;53.554;9.916;2022-07-10T08:22:21;11.80;;;2.70;;
17796;SDS011;55596;53.554;9.916;2022-07-10T08:24:49;15.77;;;2.90;;
17796;SDS011;55596;53.554;9.916;2022-07-10T08:27:16;13.13;;;2.20;;
17796;SDS011;55596;53.554;9.916;2022-07-10T08:29:43;12.03;;;2.60;;
17796;SDS011;55596;53.554;9.916;2022-07-10T08:32:10;10.27;;;2.30;;
17796;SDS011;55596;53.554;9.916;2022-07-10T08:34:37;11.03;;;2.30;;
17796;SDS011;55596;53.554;9.916;2022-07-10T08:37:04;13.03;;;2.90;;
17796;SDS011;55596;53.554;9.916;2022-07-10T08:39:31;9.93;;;2.23;;
17796;SDS011;55596;53.554;9.916;2022-07-10T08:41:59;11.63;;;2.33;;
17796;SDS011;55596;53.554;9.916;2022-07-10T08:44:26;13.70;;;3.00;;
17796;SDS011;55596;53.554;9.916;2022-07-10T08:46:54;12.13;;;2.40;;
17796;SDS011;55596;53.554;9.916;2022-07-10T08:49:23;9.17;;;2.50;;
17796;SDS011;55596;53.554;9.916;2022-07-10T08:51:54;13.80;;;2.63;;
17796;SDS011;55596;53.554;9.916;2022-07-10T08:54:25;8.93;;;1.93;;
17796;SDS011;55596;53.554;9.916;2022-07-10T08:56:55;11.67;;;2.40;;
17796;SDS011;55596;53.554;9.916;2022-07-10T08:59:24;14.73;;;2.57;;
17796;SDS011;55596;53.554;9.916;2022-07-10T09:01:51;13.30;;;2.20;;
17796;SDS011;55596;53.554;9.916;2022-07-10T09:04:19;12.13;;;2.00;;
17796;SDS011;55596;53.554;9.916;2022-07-10T09:06:48;7.47;;;1.93;;
17796;SDS011;55596;53.554;9.916;2022-07-10T09:09:16;12.70;;;2.20;;
17796;SDS011;55596;53.554;9.916;2022-07-10T09:11:43;10.00;;;2.10;;
17796;SDS011;55596;53.554;9.916;2022-07-10T09:14:13;6.73;;;1.77;;
17796;SDS011;55596;53.554;9.916;2022-07-10T09:16:45;13.53;;;2.40;;
17796;SDS011;55596;53.554;9.916;2022-07-10T09:19:17;12.40;;;1.93;;
17796;SDS011;55596;53.554;9.916;2022-07-10T09:21:45;10.00;;;1.77;;
17796;SDS011;55596;53.554;9.916;2022-07-10T09:24:13;9.83;;;1.87;;
17796;SDS011;55596;53.554;9.916;2022-07-10T09:26:42;11.03;;;1.90;;
17796;SDS011;55596;53.554;9.916;2022-07-10T09:29:10;11.83;;;2.10;;
17796;SDS011;55596;53.554;9.916;2022-07-10T09:31:51;8.70;;;2.23;;
17796;SDS011;55596;53.554;9.916;2022-07-10T09:34:34;8.30;;;1.80;;
17796;SDS011;55596;53.554;9.916;2022-07-10T09:39:54;9.97;;;2.00;;
17796;SDS011;55596;53.554;9.916;2022-07-10T09:42:26;13.63;;;2.00;;
17796;SDS011;55596;53.554;9.916;2022-07-10T09:45:17;10.63;;;1.63;;
17796;SDS011;55596;53.554;9.916;2022-07-10T09:47:53;6.83;;;1.93;;
17796;SDS011;55596;53.554;9.916;2022-07-10T09:50:22;7.13;;;2.00;;
17796;SDS011;55596;53.554;9.916;2022-07-10T09:52:51;8.10;;;1.90;;
17796;SDS011;55596;53.554;9.916;2022-07-10T09:55:19;9.80;;;2.20;;
17796;SDS011;55596;53.554;9.916;2022-07-10T09:57:52;8.03;;;1.83;;
17796;SDS011;55596;53.554;9.916;2022-07-10T10:00:22;10.53;;;1.80;;
17796;SDS011;55596;53.554;9.916;2022-07-10T10:02:55;9.20;;;1.60;;
17796;SDS011;55596;53.554;9.916;2022-07-10T10:05:26;8.27;;;2.20;;
17796;SDS011;55596;53.554;9.916;2022-07-10T10:08:03;8.40;;;1.60;;
17796;SDS011;55596;53.554;9.916;2022-07-10T10:10:43;8.23;;;1.70;;
17796;SDS011;55596;53.554;9.916;2022-07-10T10:13:13;8.77;;;1.87;;
17796;SDS011;55596;53.554;9.916;2022-07-10T10:15:43;10.50;;;1.83;;
17796;SDS011;55596;53.554;9.916;2022-07-10T10:18:13;16.47;;;1.93;;
17796;SDS011;55596;53.554;9.916;2022-07-10T10:20:43;8.67;;;1.70;;
17796;SDS011;55596;53.554;9.916;2022-07-10T10:23:12;6.13;;;1.30;;
17796;SDS011;55596;53.554;9.916;2022-07-10T10:25:40;6.53;;;1.60;;
17796;SDS011;55596;53.554;9.916;2022-07-10T10:28:08;12.97;;;1.50;;
17796;SDS011;55596;53.554;9.916;2022-07-10T10:30:37;9.80;;;1.90;;
17796;SDS011;55596;53.554;9.916;2022-07-10T10:36:09;7.27;;;1.83;;
17796;SDS011;55596;53.554;9.916;2022-07-10T10:38:59;9.50;;;1.80;;
17796;SDS011;55596;53.554;9.916;2022-07-10T10:41:27;7.80;;;1.70;;
17796;SDS011;55596;53.554;9.916;2022-07-10T10:46:57;7.37;;;1.70;;
17796;SDS011;55596;53.554;9.916;2022-07-10T10:49:51;11.20;;;2.00;;
17796;SDS011;55596;53.554;9.916;2022-07-10T10:52:27;5.57;;;1.80;;
17796;SDS011;55596;53.554;9.916;2022-07-10T10:55:04;7.70;;;1.70;;
17796;SDS011;55596;53.554;9.916;2022-07-10T10:57:34;5.47;;;1.40;;
17796;SDS011;55596;53.554;9.916;2022-07-10T11:00:05;6.83;;;1.73;;
17796;SDS011;55596;53.554;9.916;2022-07-10T11:02:34;9.27;;;1.80;;
17796;SDS011;55596;53.554;9.916;2022-07-10T11:08:09;8.47;;;1.80;;
17796;SDS011;55596;53.554;9.916;2022-07-10T11:10:37;10.13;;;1.80;;
17796;SDS011;55596;53.554;9.916;2022-07-10T11:13:06;7.20;;;1.50;;
17796;SDS011;55596;53.554;9.916;2022-07-10T11:15:35;7.00;;;1.70;;
17796;SDS011;55596;53.554;9.916;2022-07-10T11:18:04;6.20;;;1.50;;
17796;SDS011;55596;53.554;9.916;2022-07-10T11:20:32;5.60;;;1.63;;
17796;SDS011;55596;53.554;9.916;2022-07-10T11:23:06;7.60;;;1.67;;
17796;SDS011;55596;53.554;9.916;2022-07-10T11:25:58;7.27;;;1.50;;
17796;SDS011;55596;53.554;9.916;2022-07-10T11:28:38;3.87;;;1.07;;
17796;SDS011;55596;53.554;9.916;2022-07-10T11:31:12;7.47;;;1.60;;
17796;SDS011;55596;53.554;9.916;2022-07-10T11:33:39;6.20;;;1.20;;
17796;SDS011;55596;53.554;9.916;2022-07-10T11:36:11;8.23;;;1.93;;
17796;SDS011;55596;53.554;9.916;2022-07-10T11:38:41;6.60;;;1.70;;
17796;SDS011;55596;53.554;9.916;2022-07-10T11:41:12;3.60;;;1.27;;
17796;SDS011;55596;53.554;9.916;2022-07-10T11:43:46;4.83;;;1.23;;
17796;SDS011;55596;53.554;9.916;2022-07-10T11:46:13;5.00;;;1.27;;
17796;SDS011;55596;53.554;9.916;2022-07-10T11:48:40;7.55;;;1.70;;
17796;SDS011;55596;53.554;9.916;2022-07-10T11:53:55;7.63;;;1.83;;
17796;SDS011;55596;53.554;9.916;2022-07-10T11:56:24;6.05;;;1.50;;
17796;SDS011;55596;53.554;9.916;2022-07-10T11:58:55;9.13;;;1.73;;
17796;SDS011;55596;53.554;9.916;2022-07-10T12:01:23;4.57;;;1.38;;
17796;SDS011;55596;53.554;9.916;2022-07-10T12:03:54;6.82;;;1.75;;
17796;SDS011;55596;53.554;9.916;2022-07-10T12:06:23;6.55;;;1.67;;
17796;SDS011;55596;53.554;9.916;2022-07-10T12:08:51;7.05;;;1.58;;
17796;SDS011;55596;53.554;9.916;2022-07-10T12:11:20;5.13;;;1.50;;
17796;SDS011;55596;53.554;9.916;2022-07-10T12:13:48;9.13;;;1.67;;
17796;SDS011;55596;53.554;9.916;2022-07-10T12:16:16;5.00;;;1.50;;
17796;SDS011;55596;53.554;9.916;2022-07-10T12:18:43;6.35;;;1.50;;
17796;SDS011;55596;53.554;9.916;2022-07-10T12:21:12;9.77;;;1.40;;
17796;SDS011;55596;53.554;9.916;2022-07-10T12:23:41;8.82;;;1.40;;
17796;SDS011;55596;53.554;9.916;2022-07-10T12:26:11;6.82;;;1.77;;
17796;SDS011;55596;53.554;9.916;2022-07-10T12:28:52;6.70;;;1.67;;
17796;SDS011;55596;53.554;9.916;2022-07-10T12:31:21;6.90;;;1.98;;
17796;SDS011;55596;53.554;9.916;2022-07-10T12:33:52;5.55;;;1.52;;
17796;SDS011;55596;53.554;9.916;2022-07-10T12:36:22;9.27;;;1.85;;
17796;SDS011;55596;53.554;9.916;2022-07-10T12:38:53;12.63;;;1.60;;
17796;SDS011;55596;53.554;9.916;2022-07-10T12:41:22;5.25;;;1.63;;
17796;SDS011;55596;53.554;9.916;2022-07-10T12:43:50;6.45;;;1.83;;
17796;SDS011;55596;53.554;9.916;2022-07-10T12:46:20;8.23;;;1.73;;
17796;SDS011;55596;53.554;9.916;2022-07-10T12:49:00;5.30;;;1.47;;
17796;SDS011;55596;53.554;9.916;2022-07-10T12:51:32;7.23;;;1.57;;
17796;SDS011;55596;53.554;9.916;2022-07-10T12:54:00;5.45;;;1.30;;
17796;SDS011;55596;53.554;9.916;2022-07-10T12:56:31;8.60;;;1.75;;
17796;SDS011;55596;53.554;9.916;2022-07-10T12:59:01;7.95;;;1.67;;
17796;SDS011;55596;53.554;9.916;2022-07-10T13:01:38;8.33;;;1.97;;
17796;SDS011;55596;53.554;9.916;2022-07-10T13:04:07;7.40;;;1.53;;
17796;SDS011;55596;53.554;9.916;2022-07-10T13:06:35;5.70;;;1.77;;
17796;SDS011;55596;53.554;9.916;2022-07-10T13:09:17;7.65;;;1.50;;
17796;SDS011;55596;53.554;9.916;2022-07-10T13:11:45;5.15;;;1.63;;
17796;SDS011;55596;53.554;9.916;2022-07-10T13:14:14;9.95;;;1.88;;
17796;SDS011;55596;53.554;9.916;2022-07-10T13:16:41;6.07;;;1.63;;
17796;SDS011;55596;53.554;9.916;2022-07-10T13:19:08;5.00;;;1.53;;
17796;SDS011;55596;53.554;9.916;2022-07-10T13:21:35;6.03;;;1.70;;
17796;SDS011;55596;53.554;9.916;2022-07-10T13:24:02;7.37;;;1.83;;
17796;SDS011;55596;53.554;9.916;2022-07-10T13:26:29;5.73;;;1.60;;
17796;SDS011;55596;53.554;9.916;2022-07-10T13:28:56;5.83;;;1.53;;
17796;SDS011;55596;53.554;9.916;2022-07-10T13:31:26;9.43;;;1.87;;
17796;SDS011;55596;53.554;9.916;2022-07-10T13:33:53;8.23;;;1.63;;
17796;SDS011;55596;53.554;9.916;2022-07-10T13:36:21;8.13;;;1.83;;
17796;SDS011;55596;53.554;9.916;2022-07-10T13:38:48;9.53;;;1.67;;
17796;SDS011;55596;53.554;9.916;2022-07-10T13:41:17;5.32;;;1.85;;
17796;SDS011;55596;53.554;9.916;2022-07-10T13:43:44;7.37;;;1.80;;
17796;SDS011;55596;53.554;9.916;2022-07-10T13:46:11;9.40;;;1.83;;
17796;SDS011;55596;53.554;9.916;2022-07-10T13:48:40;6.78;;;1.65;;
17796;SDS011;55596;53.554;9.916;2022-07-10T13:51:06;5.00;;;1.45;;
17796;SDS011;55596;53.554;9.916;2022-07-10T13:53:33;12.10;;;1.98;;
17796;SDS011;55596;53.554;9.916;2022-07-10T13:56:00;8.57;;;2.03;;
17796;SDS011;55596;53.554;9.916;2022-07-10T13:58:27;4.93;;;1.40;;
17796;SDS011;55596;53.554;9.916;2022-07-10T14:00:54;8.30;;;1.87;;
17796;SDS011;55596;53.554;9.916;2022-07-10T14:03:24;5.80;;;1.53;;
17796;SDS011;55596;53.554;9.916;2022-07-10T14:05:52;10.77;;;1.97;;
17796;SDS011;55596;53.554;9.916;2022-07-10T14:08:19;9.93;;;1.73;;
17796;SDS011;55596;53.554;9.916;2022-07-10T14:10:46;7.43;;;1.50;;
17796;SDS011;55596;53.554;9.916;2022-07-10T14:13:13;7.53;;;1.63;;
17796;SDS011;55596;53.554;9.916;2022-07-10T14:15:40;10.10;;;1.83;;
17796;SDS011;55596;53.554;9.916;2022-07-10T14:18:09;5.50;;;1.63;;
17796;SDS011;55596;53.554;9.916;2022-07-10T14:20:36;10.00;;;1.70;;
17796;SDS011;55596;53.554;9.916;2022-07-10T14:23:18;6.75;;;1.48;;
17796;SDS011;55596;53.554;9.916;2022-07-10T14:25:45;7.60;;;1.80;;
17796;SDS011;55596;53.554;9.916;2022-07-10T14:28:13;6.63;;;1.35;;
17796;SDS011;55596;53.554;9.916;2022-07-10T14:30:40;5.63;;;1.77;;
17796;SDS011;55596;53.554;9.916;2022-07-10T14:33:08;5.82;;;1.58;;
17796;SDS011;55596;53.554;9.916;2022-07-10T14:35:35;9.88;;;1.52;;
17796;SDS011;55596;53.554;9.916;2022-07-10T14:38:02;6.70;;;1.63;;
17796;SDS011;55596;53.554;9.916;2022-07-10T14:40:30;5.43;;;1.42;;
17796;SDS011;55596;53.554;9.916;2022-07-10T14:42:57;9.40;;;1.58;;
17796;SDS011;55596;53.554;9.916;2022-07-10T14:45:24;4.80;;;1.58;;
17796;SDS011;55596;53.554;9.916;2022-07-10T14:47:51;8.33;;;1.50;;
17796;SDS011;55596;53.554;9.916;2022-07-10T14:50:19;4.10;;;1.20;;
17796;SDS011;55596;53.554;9.916;2022-07-10T14:52:46;7.80;;;1.90;;
17796;SDS011;55596;53.554;9.916;2022-07-10T14:55:13;8.13;;;1.80;;
17796;SDS011;55596;53.554;9.916;2022-07-10T14:57:41;8.97;;;1.90;;
17796;SDS011;55596;53.554;9.916;2022-07-10T15:00:08;9.07;;;1.60;;
17796;SDS011;55596;53.554;9.916;2022-07-10T15:02:36;5.20;;;1.63;;
17796;SDS011;55596;53.554;9.916;2022-07-10T15:05:03;8.70;;;2.00;;